Flight Track Log - Related Links

Times and Time Zones

All times are in EDT time to prevent confusion due to time zone crossing. See the EJA898 flight status page for this flight to view local times or setup timezone preferences in your user account.

Time Position Orientation Groundspeed Altitude Reporting Facility
EDT Latitude Longitude Course Direction KTS MPH feet Rate Location/Type
Mon 02:28:33 PM 40.5369 -80.0067 39° Northeast 279 321 25,000  Level Cleveland Center
Mon 02:29:33 PM 40.6039 -80.0553 331° Northwest 279 321 12,900 -4,700 Descending Cleveland Center
Mon 02:30:33 PM 40.6853 -80.0847 345° North 289 333 15,600 2,600 Climbing Cleveland Center
Mon 02:31:00 PM 40.8682 -80.1318 37° Northeast  Level FlightAware Approximate
Mon 02:31:33 PM 40.7600 -80.0211 33° Northeast 271 312 18,100  Level Cleveland Center
Mon 02:32:00 PM 40.9455 -80.0519 39° Northeast  Level FlightAware Approximate
Mon 02:32:33 PM 40.8306 -79.9575 34° Northeast 295 339 20,300  Level Cleveland Center
Mon 02:33:00 PM 41.0213 -79.9694 39° Northeast  Level FlightAware Approximate
Mon 02:33:33 PM 40.9114 -79.8853 34° Northeast 323 372 22,600  Level Cleveland Center
Mon 02:34:33 PM 40.9964 -79.8072 35° Northeast 345 397 24,600 1,200 Climbing Cleveland Center
Mon 02:35:33 PM 41.0875 -79.7264 34° Northeast 371 427 25,000 200 Climbing Cleveland Center
Mon 02:36:33 PM 41.1911 -79.6339 34° Northeast 421 484 25,000  Level Cleveland Center
Mon 02:37:33 PM 41.2944 -79.5386 35° Northeast 441 507 25,000  Level Cleveland Center
Mon 02:38:33 PM 41.4061 -79.4369 34° Northeast 447 514 25,000  Level Cleveland Center
Mon 02:39:33 PM 41.5114 -79.3408 34° Northeast 447 514 25,000  Level Cleveland Center
Mon 02:40:33 PM 41.5933 -79.2144 49° Northeast 440 506 25,000  Level Cleveland Center
Mon 02:41:33 PM 41.6244 -79.0497 76° East 430 495 25,000  Level Cleveland Center
Mon 02:42:33 PM 41.6325 -78.8775 86° East 435 501 25,000  Level Cleveland Center
Mon 02:43:33 PM 41.6403 -78.7078 86° East 442 509 25,000  Level Cleveland Center
Mon 02:44:33 PM 41.6478 -78.5381 87° East 454 522 25,000  Level Cleveland Center
Mon 02:45:33 PM 41.6572 -78.3708 86° East 454 522 25,000  Level Cleveland Center
Mon 02:49:27 PM 41.6822 -77.7258 87° East 456 525 25,000  Level New York Center
Mon 02:50:29 PM 41.6900 -77.5544 86° East 456 525 25,000  Level New York Center
Mon 02:51:27 PM 41.6914 -77.3850 89° East 456 525 25,000  Level New York Center
Mon 02:52:29 PM 41.6817 -77.2175 94° East 461 531 25,000  Level New York Center
Mon 02:53:29 PM 41.6531 -77.0536 103° East 461 531 25,000  Level New York Center
Mon 02:54:29 PM 41.6019 -76.8739 111° Southeast 461 531 25,000  Level New York Center
Mon 02:55:27 PM 41.5581 -76.7147 110° East 461 531 25,000  Level New York Center
Mon 02:56:28 PM 41.5211 -76.5756 109° East 456 525 25,000  Level New York Center
Mon 02:57:28 PM 41.4769 -76.4139 110° East 456 525 25,000  Level New York Center
Mon 02:58:29 PM 41.4314 -76.2303 108° East 456 525 25,000 -496 Level New York Center
Mon 02:59:29 PM 41.3803 -76.0714 113° Southeast 463 533 24,000 -1,780 Descending New York Center
Mon 03:00:27 PM 41.3369 -75.9214 111° Southeast 455 524 21,500 -2,420 Descending New York Center
Mon 03:01:28 PM 41.2953 -75.7719 110° East 440 506 19,200 -2,331 Descending New York Center
Mon 03:02:28 PM 41.2494 -75.6194 112° Southeast 440 506 16,800 -2,269 Descending New York Center
Mon 03:03:27 PM 41.2050 -75.4867 114° Southeast 412 474 14,700 -1,916 Descending New York Center
Mon 03:04:27 PM 41.1639 -75.3681 115° Southeast 394 453 13,000 -1,785 Descending New York Center
Mon 03:05:28 PM 41.1208 -75.2383 114° Southeast 381 438 11,100 -2,115 Descending New York Center
Mon 03:06:29 PM 41.0817 -75.1175 113° Southeast 359 413 8,700 -2,118 Descending New York Center
Mon 03:07:27 PM 41.0478 -75.0192 115° Southeast 305 351 6,900 -1,373 Descending New York Center
Mon 03:08:27 PM 41.0192 -74.9403 116° Southeast 275 316 6,000 -744 Descending New York Center
Mon 03:09:28 PM 41.0039 -74.8403 101° East 268 308 5,400 -984 Descending New York Center
Mon 03:10:29 PM 41.0200 -74.7367 78° East 263 303 4,000 -1,059 Descending New York Center
Mon 03:11:27 PM 41.0356 -74.6442 77° East 263 303 3,300 -508 Descending New York Center
Mon 03:12:27 PM 41.0531 -74.5517 76° East 258 297 3,000 -149 Descending New York Center
Mon 03:13:28 PM 41.0311 -74.4597 108° East 252 290 3,000  Level New York Center
Mon 03:14:28 PM 41.0111 -74.3678 106° East 267 307 3,000  Level New York Center
Mon 03:14:50 PM 41.0000 -74.3333 113° Southeast 268 308 3,000 -545 Level New York TRACON
Mon 03:15:56 PM 40.9500 -74.2833 143° Southeast 193 222 2,200 -476 Descending New York TRACON
Mon 03:16:56 PM 40.9000 -74.3167 207° Southwest 197 227 2,000 -316 Descending New York TRACON
Mon 03:17:50 PM 40.8667 -74.3500 217° Southwest 165 190 1,600 -395 Descending New York TRACON
Mon 03:19:28 PM 40.8103 -74.3956 211° Southwest 154 177 1,000 1,671 Descending New York Center
Mon 03:20:28 PM 40.7717 -74.4292 213° Southwest 154 177 6,000 5,000 Climbing New York Center
Mon 03:22:00 PM 40.7833 -74.4000 123° Southeast  Level FlightAware Approximate

Login

Don't have an account? Register now (free) for customized features, flight alerts, and more!